Time,TemperatureF,DewpointF,PressureIn,WindDirection,WindDirectionDegrees,WindSpeedMPH,WindSpeedGustMPH,Humidity,HourlyPrecipIn,Conditions,Clouds,dailyrainin,SolarRadiationWatts/m^2,SoftwareType,DateUTC
2013-04-06 00:00:00,37.6,23.7,30.11,NNW,348,3.0,3.0,57,0.00,,,0.00,0,Wunderground v.1.15,2013-04-06 04:00:00,
2013-04-06 00:01:00,37.6,24.1,30.11,NNW,348,3.0,3.0,58,0.00,,,0.00,0,Wunderground v.1.15,2013-04-06 04:01:00,
2013-04-06 00:05:00,37.3,23.4,30.11,North,9,2.0,7.0,57,0.00,,,0.00,0,Wunderground v.1.15,2013-04-06 04:05:00,
2013-04-06 00:10:00,37.0,21.9,30.11,NNE,15,5.0,5.0,54,0.00,,,0.00,0,Wunderground v.1.15,2013-04-06 04:10:00,
2013-04-06 00:13:00,37.0,22.3,30.11,North,355,6.0,7.0,55,0.00,,,0.00,0,Wunderground v.1.15,2013-04-06 04:13:00,
2013-04-06 00:19:00,37.0,21.4,30.12,WNW,302,6.0,13.0,53,0.00,,,0.00,0,Wunderground v.1.15,2013-04-06 04:19:00,
2013-04-06 00:25:00,37.2,22.1,30.12,North,360,7.0,11.0,54,0.00,,,0.00,0,Wunderground v.1.15,2013-04-06 04:25:00,
2013-04-06 00:30:00,37.1,22.0,30.12,NNW,346,4.0,4.0,54,0.00,,,0.00,0,Wunderground v.1.15,2013-04-06 04:30:00,
2013-04-06 00:37:00,36.5,21.8,30.13,NNW,346,2.0,10.0,55,0.00,,,0.00,0,Wunderground v.1.15,2013-04-06 04:37:00,
2013-04-06 00:42:00,36.4,20.9,30.13,North,349,6.0,11.0,53,0.00,,,0.00,0,Wunderground v.1.15,2013-04-06 04:42:00,
2013-04-06 00:48:00,36.4,21.3,30.13,North,360,8.0,11.0,54,0.00,,,0.00,0,Wunderground v.1.15,2013-04-06 04:48:00,
2013-04-06 00:53:00,36.3,21.2,30.13,North,360,7.0,11.0,54,0.00,,,0.00,0,Wunderground v.1.15,2013-04-06 04:53:00,
2013-04-06 00:58:00,36.1,21.0,30.13,North,5,6.0,11.0,54,0.00,,,0.00,0,Wunderground v.1.15,2013-04-06 04:58:00,
2013-04-06 01:04:00,35.8,21.2,30.13,NNE,12,6.0,9.0,55,0.00,,,0.00,0,Wunderground v.1.15,2013-04-06 05:04:00,
2013-04-06 01:10:00,35.7,21.1,30.14,North,11,8.0,8.0,55,0.00,,,0.00,0,Wunderground v.1.15,2013-04-06 05:10:00,
2013-04-06 01:16:00,35.6,21.0,30.14,North,9,8.0,12.0,55,0.00,,,0.00,0,Wunderground v.1.15,2013-04-06 05:16:00,
2013-04-06 01:22:00,35.4,20.8,30.14,NNE,26,6.0,6.0,55,0.00,,,0.00,0,Wunderground v.1.15,2013-04-06 05:22:00,
2013-04-06 01:28:00,35.3,21.2,30.14,North,9,5.0,8.0,56,0.00,,,0.00,0,Wunderground v.1.15,2013-04-06 05:28:00,
2013-04-06 01:33:00,34.8,23.5,30.15,North,9,3.0,4.0,63,0.00,,,0.00,0,Wunderground v.1.15,2013-04-06 05:33:00,
2013-04-06 01:38:00,33.9,23.7,30.15,NW,320,1.0,4.0,66,0.00,,,0.00,0,Wunderground v.1.15,2013-04-06 05:38:00,
2013-04-06 01:44:00,32.8,23.0,30.15,NW,317,1.0,2.0,67,0.00,,,0.00,0,Wunderground v.1.15,2013-04-06 05:44:00,
2013-04-06 01:49:00,31.9,23.2,30.15,NE,47,1.0,3.0,70,0.00,,,0.00,0,Wunderground v.1.15,2013-04-06 05:49:00,
2013-04-06 01:54:00,31.2,21.5,30.15,ENE,57,1.0,4.0,67,0.00,,,0.00,0,Wunderground v.1.15,2013-04-06 05:54:00,
2013-04-06 01:59:00,31.0,21.7,30.15,NE,51,2.0,4.0,68,0.00,,,0.00,0,Wunderground v.1.15,2013-04-06 05:59:00,
2013-04-06 02:05:00,30.9,21.9,30.15,North,360,3.0,4.0,69,0.00,,,0.00,0,Wunderground v.1.15,2013-04-06 06:05:00,
2013-04-06 02:11:00,30.8,22.8,30.15,ENE,74,2.0,2.0,72,0.00,,,0.00,0,Wunderground v.1.15,2013-04-06 06:11:00,
2013-04-06 02:16:00,30.7,22.4,30.15,ENE,78,1.0,2.0,71,0.00,,,0.00,0,Wunderground v.1.15,2013-04-06 06:16:00,
2013-04-06 02:22:00,30.5,21.9,30.16,ENE,74,1.0,2.0,70,0.00,,,0.00,0,Wunderground v.1.15,2013-04-06 06:22:00,
2013-04-06 02:27:00,30.2,22.9,30.16,ENE,74,1.0,2.0,74,0.00,,,0.00,0,Wunderground v.1.15,2013-04-06 06:27:00,
2013-04-06 02:33:00,29.9,22.3,30.16,ENE,76,1.0,3.0,73,0.00,,,0.00,0,Wunderground v.1.15,2013-04-06 06:33:00,
2013-04-06 02:38:00,29.7,22.7,30.16,NE,51,2.0,3.0,75,0.00,,,0.00,0,Wunderground v.1.15,2013-04-06 06:38:00,
2013-04-06 02:43:00,29.4,22.8,30.16,NE,34,2.0,4.0,76,0.00,,,0.00,0,Wunderground v.1.15,2013-04-06 06:43:00,
2013-04-06 02:49:00,29.1,23.1,30.17,NNE,32,1.0,4.0,78,0.00,,,0.00,0,Wunderground v.1.15,2013-04-06 06:49:00,
2013-04-06 02:55:00,28.8,22.8,30.17,NNW,329,1.0,2.0,78,0.00,,,0.00,0,Wunderground v.1.15,2013-04-06 06:55:00,
2013-04-06 03:00:00,28.6,22.3,30.17,NNW,328,1.0,1.0,77,0.00,,,0.00,0,Wunderground v.1.15,2013-04-06 07:00:00,
2013-04-06 03:06:00,28.5,22.5,30.17,NNW,344,1.0,3.0,78,0.00,,,0.00,0,Wunderground v.1.15,2013-04-06 07:06:00,
2013-04-06 03:12:00,28.5,22.2,30.17,NNW,344,1.0,1.0,77,0.00,,,0.00,0,Wunderground v.1.15,2013-04-06 07:12:00,
2013-04-06 03:18:00,28.4,22.4,30.17,NNE,20,0.0,7.0,78,0.00,,,0.00,0,Wunderground v.1.15,2013-04-06 07:18:00,
2013-04-06 03:23:00,28.6,22.3,30.17,NNE,17,2.0,7.0,77,0.00,,,0.00,0,Wunderground v.1.15,2013-04-06 07:23:00,
2013-04-06 03:28:00,29.3,23.0,30.17,WNW,302,3.0,7.0,77,0.00,,,0.00,0,Wunderground v.1.15,2013-04-06 07:28:00,
2013-04-06 03:33:00,29.4,22.8,30.18,NNW,336,2.0,5.0,76,0.00,,,0.00,0,Wunderground v.1.15,2013-04-06 07:33:00,
2013-04-06 03:38:00,29.5,23.2,30.17,NNW,336,1.0,5.0,77,0.00,,,0.00,0,Wunderground v.1.15,2013-04-06 07:38:00,
2013-04-06 03:43:00,29.2,22.9,30.17,NNW,337,0.0,1.0,77,0.00,,,0.00,0,Wunderground v.1.15,2013-04-06 07:43:00,
2013-04-06 03:49:00,28.7,22.4,30.17,North,360,0.0,3.0,77,0.00,,,0.00,0,Wunderground v.1.15,2013-04-06 07:49:00,
2013-04-06 03:55:00,28.3,22.9,30.17,NW,320,2.0,4.0,80,0.00,,,0.00,0,Wunderground v.1.15,2013-04-06 07:55:00,
2013-04-06 04:00:00,27.9,22.8,30.18,North,360,3.0,3.0,81,0.00,,,0.00,0,Wunderground v.1.15,2013-04-06 08:00:00,
2013-04-06 04:06:00,27.6,22.8,30.18,NW,310,4.0,7.0,82,0.00,,,0.00,0,Wunderground v.1.15,2013-04-06 08:06:00,
2013-04-06 04:11:00,27.4,22.9,30.18,NW,308,3.0,5.0,83,0.00,,,0.00,0,Wunderground v.1.15,2013-04-06 08:11:00,
2013-04-06 04:17:00,27.3,22.8,30.18,NW,314,3.0,5.0,83,0.00,,,0.00,0,Wunderground v.1.15,2013-04-06 08:17:00,
2013-04-06 04:22:00,27.2,23.0,30.18,NW,314,4.0,5.0,84,0.00,,,0.00,0,Wunderground v.1.15,2013-04-06 08:22:00,
2013-04-06 04:27:00,27.0,22.5,30.19,NW,306,5.0,6.0,83,0.00,,,0.00,0,Wunderground v.1.15,2013-04-06 08:27:00,
2013-04-06 04:32:00,26.8,22.3,30.19,NW,304,5.0,7.0,83,0.00,,,0.00,0,Wunderground v.1.15,2013-04-06 08:32:00,
2013-04-06 04:37:00,26.7,22.5,30.19,NW,305,6.0,7.0,84,0.00,,,0.00,0,Wunderground v.1.15,2013-04-06 08:37:00,
2013-04-06 04:43:00,26.6,22.7,30.19,NW,317,6.0,7.0,85,0.00,,,0.00,0,Wunderground v.1.15,2013-04-06 08:43:00,
2013-04-06 04:48:00,26.6,22.4,30.19,NW,310,6.0,7.0,84,0.00,,,0.00,0,Wunderground v.1.15,2013-04-06 08:48:00,
2013-04-06 04:54:00,26.6,22.7,30.20,NW,310,6.0,7.0,85,0.00,,,0.00,0,Wunderground v.1.15,2013-04-06 08:54:00,
2013-04-06 04:59:00,26.7,22.8,30.20,NW,311,6.0,7.0,85,0.00,,,0.00,0,Wunderground v.1.15,2013-04-06 08:59:00,
2013-04-06 05:05:00,26.7,23.1,30.20,NW,307,4.0,6.0,86,0.00,,,0.00,0,Wunderground v.1.15,2013-04-06 09:05:00,
2013-04-06 05:11:00,26.5,22.6,30.20,NW,305,3.0,3.0,85,0.00,,,0.00,0,Wunderground v.1.15,2013-04-06 09:11:00,
2013-04-06 05:17:00,26.4,22.5,30.21,NW,304,2.0,3.0,85,0.00,,,0.00,0,Wunderground v.1.15,2013-04-06 09:17:00,
2013-04-06 05:22:00,26.3,22.7,30.20,NW,307,2.0,2.0,86,0.00,,,0.00,0,Wunderground v.1.15,2013-04-06 09:22:00,
2013-04-06 05:27:00,26.2,22.9,30.21,NW,306,2.0,2.0,87,0.00,,,0.00,0,Wunderground v.1.15,2013-04-06 09:27:00,
2013-04-06 05:32:00,26.2,22.9,30.21,NW,305,0.0,1.0,87,0.00,,,0.00,0,Wunderground v.1.15,2013-04-06 09:32:00,
2013-04-06 05:37:00,26.1,22.8,30.21,NW,307,0.0,1.0,87,0.00,,,0.00,0,Wunderground v.1.15,2013-04-06 09:37:00,
2013-04-06 05:43:00,26.1,22.5,30.21,NW,304,0.0,2.0,86,0.00,,,0.00,0,Wunderground v.1.15,2013-04-06 09:43:00,
2013-04-06 05:48:00,25.9,22.6,30.21,North,5,1.0,2.0,87,0.00,,,0.00,0,Wunderground v.1.15,2013-04-06 09:48:00,
2013-04-06 05:55:00,26.0,22.4,30.22,ENE,70,1.0,4.0,86,0.00,,,0.00,0,Wunderground v.1.15,2013-04-06 09:55:00,
2013-04-06 06:00:00,26.1,22.2,30.22,NNE,32,2.0,3.0,85,0.00,,,0.00,0,Wunderground v.1.15,2013-04-06 10:00:00,
2013-04-06 06:06:00,26.8,22.3,30.22,ENE,63,4.0,5.0,83,0.00,,,0.00,0,Wunderground v.1.15,2013-04-06 10:06:00,
2013-04-06 06:12:00,27.5,22.7,30.22,NE,53,4.0,5.0,82,0.00,,,0.00,0,Wunderground v.1.15,2013-04-06 10:12:00,
2013-04-06 06:18:00,27.3,22.8,30.22,NNW,346,3.0,5.0,83,0.00,,,0.00,0,Wunderground v.1.15,2013-04-06 10:18:00,
2013-04-06 06:24:00,26.7,22.2,30.22,North,355,2.0,2.0,83,0.00,,,0.00,0,Wunderground v.1.15,2013-04-06 10:24:00,
2013-04-06 06:29:00,26.2,22.0,30.23,North,5,1.0,2.0,84,0.00,,,0.00,0,Wunderground v.1.15,2013-04-06 10:29:00,
2013-04-06 06:34:00,26.1,22.2,30.23,ENE,57,1.0,5.0,85,0.00,,,0.00,0,Wunderground v.1.15,2013-04-06 10:34:00,
2013-04-06 06:40:00,25.9,22.0,30.23,East,92,1.0,1.0,85,0.00,,,0.00,0,Wunderground v.1.15,2013-04-06 10:40:00,
2013-04-06 06:46:00,25.8,22.2,30.24,East,95,1.0,1.0,86,0.00,,,0.00,0,Wunderground v.1.15,2013-04-06 10:46:00,
2013-04-06 06:51:00,25.7,22.1,30.24,East,96,0.0,0.0,86,0.00,,,0.00,5,Wunderground v.1.15,2013-04-06 10:51:00,
2013-04-06 06:57:00,25.6,22.3,30.24,East,93,0.0,1.0,87,0.00,,,0.00,9,Wunderground v.1.15,2013-04-06 10:57:00,
2013-04-06 07:02:00,25.4,22.1,30.25,East,92,0.0,0.0,87,0.00,,,0.00,12,Wunderground v.1.15,2013-04-06 11:02:00,
2013-04-06 07:08:00,25.3,22.2,30.25,East,92,0.0,0.0,88,0.00,,,0.00,16,Wunderground v.1.15,2013-04-06 11:08:00,
2013-04-06 07:13:00,25.0,21.7,30.26,East,93,0.0,0.0,87,0.00,,,0.00,18,Wunderground v.1.15,2013-04-06 11:13:00,
2013-04-06 07:18:00,24.8,21.8,30.26,East,94,0.0,1.0,88,0.00,,,0.00,21,Wunderground v.1.15,2013-04-06 11:18:00,
2013-04-06 07:23:00,24.8,21.8,30.27,East,95,0.0,0.0,88,0.00,,,0.00,33,Wunderground v.1.15,2013-04-06 11:23:00,
2013-04-06 07:28:00,24.9,22.1,30.27,East,93,1.0,2.0,89,0.00,,,0.00,37,Wunderground v.1.15,2013-04-06 11:28:00,
2013-04-06 07:33:00,25.1,21.8,30.27,SE,144,1.0,3.0,87,0.00,,,0.00,49,Wunderground v.1.15,2013-04-06 11:33:00,
2013-04-06 07:39:00,25.6,22.5,30.27,South,183,2.0,4.0,88,0.00,,,0.00,91,Wunderground v.1.15,2013-04-06 11:39:00,
2013-04-06 07:45:00,26.2,22.9,30.28,South,186,1.0,2.0,87,0.00,,,0.00,113,Wunderground v.1.15,2013-04-06 11:45:00,
2013-04-06 07:50:00,27.0,23.4,30.28,South,184,0.0,0.0,86,0.00,,,0.00,98,Wunderground v.1.15,2013-04-06 11:50:00,
2013-04-06 07:56:00,27.7,23.2,30.29,South,184,0.0,0.0,83,0.00,,,0.00,160,Wunderground v.1.15,2013-04-06 11:56:00,
2013-04-06 08:01:00,28.3,23.5,30.29,South,190,0.0,2.0,82,0.00,,,0.00,188,Wunderground v.1.15,2013-04-06 12:01:00,
2013-04-06 08:07:00,29.1,23.7,30.29,WSW,244,1.0,3.0,80,0.00,,,0.00,221,Wunderground v.1.15,2013-04-06 12:07:00,
2013-04-06 08:12:00,29.8,24.4,30.29,North,360,2.0,2.0,80,0.00,,,0.00,237,Wunderground v.1.15,2013-04-06 12:12:00,
2013-04-06 08:18:00,30.4,24.7,30.29,SSE,161,2.0,5.0,79,0.00,,,0.00,264,Wunderground v.1.15,2013-04-06 12:18:00,
2013-04-06 08:23:00,30.6,25.2,30.29,SSE,159,3.0,4.0,80,0.00,,,0.00,283,Wunderground v.1.15,2013-04-06 12:23:00,
2013-04-06 08:28:00,30.6,24.9,30.30,SSE,165,3.0,4.0,79,0.00,,,0.00,288,Wunderground v.1.15,2013-04-06 12:28:00,
2013-04-06 08:34:00,30.8,25.1,30.30,SSE,164,2.0,3.0,79,0.00,,,0.00,320,Wunderground v.1.15,2013-04-06 12:34:00,
2013-04-06 08:40:00,31.5,24.8,30.30,SSE,165,1.0,1.0,76,0.00,,,0.00,336,Wunderground v.1.15,2013-04-06 12:40:00,
2013-04-06 08:46:00,32.3,24.9,30.30,SSE,166,0.0,1.0,74,0.00,,,0.00,359,Wunderground v.1.15,2013-04-06 12:46:00,
2013-04-06 08:51:00,32.9,24.9,30.30,ESE,121,0.0,1.0,72,0.00,,,0.00,316,Wunderground v.1.15,2013-04-06 12:51:00,
2013-04-06 08:57:00,33.6,25.2,30.30,NNE,22,1.0,1.0,71,0.00,,,0.00,383,Wunderground v.1.15,2013-04-06 12:57:00,
2013-04-06 09:03:00,34.1,26.3,30.30,SE,131,1.0,3.0,73,0.00,,,0.00,396,Wunderground v.1.15,2013-04-06 13:03:00,
2013-04-06 09:08:00,34.2,26.1,30.30,SE,136,3.0,3.0,72,0.00,,,0.00,431,Wunderground v.1.15,2013-04-06 13:08:00,
2013-04-06 09:14:00,34.9,27.1,30.30,East,90,2.0,3.0,73,0.00,,,0.00,450,Wunderground v.1.15,2013-04-06 13:14:00,
2013-04-06 09:19:00,35.5,25.6,30.30,East,90,1.0,3.0,67,0.00,,,0.00,475,Wunderground v.1.15,2013-04-06 13:19:00,
2013-04-06 09:25:00,35.9,24.1,30.30,East,90,0.0,1.0,62,0.00,,,0.00,496,Wunderground v.1.15,2013-04-06 13:25:00,
2013-04-06 09:31:00,36.2,24.0,30.30,ENE,78,1.0,5.0,61,0.00,,,0.00,515,Wunderground v.1.15,2013-04-06 13:31:00,
2013-04-06 09:37:00,36.7,21.6,30.30,East,87,2.0,5.0,54,0.00,,,0.00,536,Wunderground v.1.15,2013-04-06 13:37:00,
2013-04-06 09:43:00,36.8,23.0,30.30,East,87,3.0,3.0,57,0.00,,,0.00,550,Wunderground v.1.15,2013-04-06 13:43:00,
2013-04-06 09:49:00,37.2,23.4,30.30,East,98,2.0,3.0,57,0.00,,,0.00,571,Wunderground v.1.15,2013-04-06 13:49:00,
2013-04-06 09:54:00,37.4,21.8,30.30,SSE,161,2.0,3.0,53,0.00,,,0.00,585,Wunderground v.1.15,2013-04-06 13:54:00,
2013-04-06 09:59:00,38.0,22.8,30.30,ENE,65,2.0,3.0,54,0.00,,,0.00,601,Wunderground v.1.15,2013-04-06 13:59:00,
2013-04-06 10:05:00,37.9,21.8,30.30,NE,41,2.0,4.0,52,0.00,,,0.00,613,Wunderground v.1.15,2013-04-06 14:05:00,
2013-04-06 10:10:00,37.9,20.4,30.30,NW,305,1.0,4.0,49,0.00,,,0.00,629,Wunderground v.1.15,2013-04-06 14:10:00,
2013-04-06 10:16:00,38.3,21.7,30.30,NNE,28,2.0,4.0,51,0.00,,,0.00,647,Wunderground v.1.15,2013-04-06 14:16:00,
2013-04-06 10:22:00,38.4,21.8,30.31,ENE,62,2.0,2.0,51,0.00,,,0.00,664,Wunderground v.1.15,2013-04-06 14:22:00,
2013-04-06 10:27:00,38.6,22.9,30.30,NE,47,1.0,3.0,53,0.00,,,0.00,670,Wunderground v.1.15,2013-04-06 14:27:00,
2013-04-06 10:32:00,39.1,23.4,30.30,ESE,103,1.0,1.0,53,0.00,,,0.00,679,Wunderground v.1.15,2013-04-06 14:32:00,
2013-04-06 10:38:00,39.5,22.4,30.30,ENE,66,2.0,4.0,50,0.00,,,0.00,691,Wunderground v.1.15,2013-04-06 14:38:00,
2013-04-06 10:43:00,39.5,22.4,30.30,ENE,59,3.0,5.0,50,0.00,,,0.00,715,Wunderground v.1.15,2013-04-06 14:43:00,
2013-04-06 10:49:00,39.8,22.7,30.30,SE,127,2.0,5.0,50,0.00,,,0.00,710,Wunderground v.1.15,2013-04-06 14:49:00,
2013-04-06 10:55:00,40.6,21.9,30.30,SE,132,2.0,6.0,47,0.00,,,0.00,712,Wunderground v.1.15,2013-04-06 14:55:00,
2013-04-06 11:00:00,41.1,21.9,30.30,SE,128,4.0,6.0,46,0.00,,,0.00,754,Wunderground v.1.15,2013-04-06 15:00:00,
2013-04-06 11:06:00,41.7,22.9,30.30,SE,138,5.0,9.0,47,0.00,,,0.00,759,Wunderground v.1.15,2013-04-06 15:06:00,
2013-04-06 11:11:00,41.7,22.4,30.30,SE,146,4.0,4.0,46,0.00,,,0.00,782,Wunderground v.1.15,2013-04-06 15:11:00,
2013-04-06 11:17:00,42.0,21.6,30.30,NE,51,2.0,5.0,44,0.00,,,0.00,795,Wunderground v.1.15,2013-04-06 15:17:00,
2013-04-06 11:22:00,42.0,20.0,30.30,SSE,157,2.0,4.0,41,0.00,,,0.00,805,Wunderground v.1.15,2013-04-06 15:22:00,
2013-04-06 11:27:00,42.2,20.2,30.30,ENE,71,2.0,4.0,41,0.00,,,0.00,696,Wunderground v.1.15,2013-04-06 15:27:00,
2013-04-06 11:33:00,42.7,20.0,30.30,ENE,61,2.0,9.0,40,0.00,,,0.00,772,Wunderground v.1.15,2013-04-06 15:33:00,
2013-04-06 11:38:00,42.6,21.1,30.30,East,88,4.0,9.0,42,0.00,,,0.00,810,Wunderground v.1.15,2013-04-06 15:38:00,
2013-04-06 11:44:00,42.7,20.0,30.30,SSE,153,4.0,4.0,40,0.00,,,0.00,833,Wunderground v.1.15,2013-04-06 15:44:00,
2013-04-06 11:50:00,43.2,19.9,30.30,North,360,4.0,4.0,39,0.00,,,0.00,842,Wunderground v.1.15,2013-04-06 15:50:00,
2013-04-06 11:56:00,43.3,19.4,30.29,NNE,22,4.0,7.0,38,0.00,,,0.00,846,Wunderground v.1.15,2013-04-06 15:56:00,
2013-04-06 12:02:00,43.3,19.4,30.29,West,263,3.0,5.0,38,0.00,,,0.00,854,Wunderground v.1.15,2013-04-06 16:02:00,
2013-04-06 12:07:00,43.9,18.6,30.28,NNW,344,2.0,5.0,36,0.00,,,0.00,860,Wunderground v.1.15,2013-04-06 16:07:00,
2013-04-06 12:12:00,44.0,19.4,30.28,NNE,28,2.0,4.0,37,0.00,,,0.00,863,Wunderground v.1.15,2013-04-06 16:12:00,
2013-04-06 12:18:00,44.0,20.6,30.28,NW,324,3.0,5.0,39,0.00,,,0.00,870,Wunderground v.1.15,2013-04-06 16:18:00,
2013-04-06 12:24:00,44.3,19.6,30.28,WSW,246,3.0,5.0,37,0.00,,,0.00,867,Wunderground v.1.15,2013-04-06 16:24:00,
2013-04-06 12:29:00,44.6,21.7,30.28,West,260,3.0,7.0,40,0.00,,,0.00,875,Wunderground v.1.15,2013-04-06 16:29:00,
2013-04-06 12:34:00,45.3,20.5,30.28,West,259,3.0,5.0,37,0.00,,,0.00,881,Wunderground v.1.15,2013-04-06 16:34:00,
2013-04-06 12:39:00,45.5,21.9,30.27,North,360,2.0,5.0,39,0.00,,,0.00,884,Wunderground v.1.15,2013-04-06 16:39:00,
2013-04-06 12:44:00,46.2,23.2,30.27,SE,144,3.0,8.0,40,0.00,,,0.00,891,Wunderground v.1.15,2013-04-06 16:44:00,
2013-04-06 12:50:00,47.2,26.4,30.27,SSE,153,5.0,5.0,44,0.00,,,0.00,849,Wunderground v.1.15,2013-04-06 16:50:00,
2013-04-06 12:55:00,47.3,23.6,30.27,SSE,163,5.0,6.0,39,0.00,,,0.00,893,Wunderground v.1.15,2013-04-06 16:55:00,
2013-04-06 13:00:00,47.4,23.0,30.27,ESE,109,4.0,4.0,38,0.00,,,0.00,896,Wunderground v.1.15,2013-04-06 17:00:00,
2013-04-06 13:06:00,47.1,22.8,30.27,SE,127,2.0,6.0,38,0.00,,,0.00,856,Wunderground v.1.15,2013-04-06 17:06:00,
2013-04-06 13:12:00,48.2,26.7,30.27,SSE,165,3.0,6.0,43,0.00,,,0.00,846,Wunderground v.1.15,2013-04-06 17:12:00,
2013-04-06 13:18:00,49.1,25.2,30.27,South,169,4.0,8.0,39,0.00,,,0.00,888,Wunderground v.1.15,2013-04-06 17:18:00,
2013-04-06 13:23:00,50.1,20.6,30.27,SSE,165,5.0,7.0,31,0.00,,,0.00,904,Wunderground v.1.15,2013-04-06 17:23:00,
2013-04-06 13:28:00,50.1,19.0,30.26,SSE,150,4.0,10.0,29,0.00,,,0.00,925,Wunderground v.1.15,2013-04-06 17:28:00,
2013-04-06 13:34:00,50.1,22.8,30.26,South,182,5.0,9.0,34,0.00,,,0.00,895,Wunderground v.1.15,2013-04-06 17:34:00,
2013-04-06 13:39:00,50.5,23.1,30.26,ESE,123,6.0,9.0,34,0.00,,,0.00,889,Wunderground v.1.15,2013-04-06 17:39:00,
2013-04-06 13:45:00,50.6,22.5,30.26,ESE,117,7.0,13.0,33,0.00,,,0.00,912,Wunderground v.1.15,2013-04-06 17:45:00,
2013-04-06 13:50:00,50.2,19.9,30.25,ESE,121,5.0,7.0,30,0.00,,,0.00,849,Wunderground v.1.15,2013-04-06 17:50:00,
2013-04-06 13:56:00,49.8,21.8,30.25,SSE,153,4.0,8.0,33,0.00,,,0.00,754,Wunderground v.1.15,2013-04-06 17:56:00,
2013-04-06 14:01:00,49.7,23.8,30.24,ESE,109,4.0,8.0,36,0.00,,,0.00,777,Wunderground v.1.15,2013-04-06 18:01:00,
2013-04-06 14:07:00,50.3,24.3,30.24,East,93,6.0,11.0,36,0.00,,,0.00,833,Wunderground v.1.15,2013-04-06 18:07:00,
2013-04-06 14:13:00,50.2,23.6,30.23,SSE,163,7.0,8.0,35,0.00,,,0.00,821,Wunderground v.1.15,2013-04-06 18:13:00,
2013-04-06 14:18:00,51.0,25.0,30.23,SSE,165,6.0,8.0,36,0.00,,,0.00,798,Wunderground v.1.15,2013-04-06 18:18:00,
2013-04-06 14:23:00,51.8,25.7,30.23,East,89,6.0,10.0,36,0.00,,,0.00,740,Wunderground v.1.15,2013-04-06 18:23:00,
2013-04-06 14:29:00,51.7,22.8,30.23,SE,140,6.0,10.0,32,0.00,,,0.00,847,Wunderground v.1.15,2013-04-06 18:29:00,
2013-04-06 14:34:00,52.1,25.3,30.23,ENE,78,5.0,7.0,35,0.00,,,0.00,819,Wunderground v.1.15,2013-04-06 18:34:00,
2013-04-06 14:40:00,52.0,26.5,30.22,SSE,148,5.0,9.0,37,0.00,,,0.00,796,Wunderground v.1.15,2013-04-06 18:40:00,
2013-04-06 14:45:00,52.7,25.8,30.22,South,178,6.0,11.0,35,0.00,,,0.00,740,Wunderground v.1.15,2013-04-06 18:45:00,
2013-04-06 14:50:00,53.5,27.2,30.22,SSE,161,6.0,6.0,36,0.00,,,0.00,810,Wunderground v.1.15,2013-04-06 18:50:00,
2013-04-06 14:55:00,53.9,25.4,30.21,SE,142,4.0,6.0,33,0.00,,,0.00,791,Wunderground v.1.15,2013-04-06 18:55:00,
2013-04-06 15:00:00,53.7,28.0,30.21,ESE,111,3.0,4.0,37,0.00,,,0.00,751,Wunderground v.1.15,2013-04-06 19:00:00,
2013-04-06 15:06:00,53.5,27.2,30.20,ESE,105,4.0,8.0,36,0.00,,,0.00,796,Wunderground v.1.15,2013-04-06 19:06:00,
2013-04-06 15:12:00,53.5,23.6,30.20,East,92,4.0,7.0,31,0.00,,,0.00,661,Wunderground v.1.15,2013-04-06 19:12:00,
2013-04-06 15:17:00,53.1,24.0,30.20,SSW,196,4.0,7.0,32,0.00,,,0.00,747,Wunderground v.1.15,2013-04-06 19:17:00,
2013-04-06 15:23:00,53.7,27.4,30.19,East,82,4.0,9.0,36,0.00,,,0.00,714,Wunderground v.1.15,2013-04-06 19:23:00,
2013-04-06 15:29:00,53.7,26.7,30.19,ESE,107,5.0,9.0,35,0.00,,,0.00,737,Wunderground v.1.15,2013-04-06 19:29:00,
2013-04-06 15:35:00,54.7,23.8,30.18,SSE,167,4.0,7.0,30,0.00,,,0.00,712,Wunderground v.1.15,2013-04-06 19:35:00,
2013-04-06 15:40:00,54.8,26.2,30.18,SSE,157,4.0,7.0,33,0.00,,,0.00,715,Wunderground v.1.15,2013-04-06 19:40:00,
2013-04-06 15:46:00,55.1,25.7,30.18,ESE,122,6.0,8.0,32,0.00,,,0.00,675,Wunderground v.1.15,2013-04-06 19:46:00,
2013-04-06 15:51:00,55.1,26.5,30.18,SE,126,7.0,10.0,33,0.00,,,0.00,666,Wunderground v.1.15,2013-04-06 19:51:00,
2013-04-06 15:57:00,54.9,23.2,30.18,South,180,6.0,10.0,29,0.00,,,0.00,659,Wunderground v.1.15,2013-04-06 19:57:00,
2013-04-06 16:02:00,55.8,27.1,30.17,South,175,5.0,8.0,33,0.00,,,0.00,647,Wunderground v.1.15,2013-04-06 20:02:00,
2013-04-06 16:08:00,56.1,25.1,30.17,WSW,257,5.0,9.0,30,0.00,,,0.00,622,Wunderground v.1.15,2013-04-06 20:08:00,
2013-04-06 16:13:00,56.1,25.1,30.17,South,177,3.0,5.0,30,0.00,,,0.00,566,Wunderground v.1.15,2013-04-06 20:13:00,
2013-04-06 16:19:00,55.8,23.1,30.17,SE,132,3.0,8.0,28,0.00,,,0.00,610,Wunderground v.1.15,2013-04-06 20:19:00,
2013-04-06 16:24:00,55.7,27.0,30.17,SSE,148,6.0,10.0,33,0.00,,,0.00,566,Wunderground v.1.15,2013-04-06 20:24:00,
2013-04-06 16:29:00,55.9,24.9,30.16,SSE,155,6.0,10.0,30,0.00,,,0.00,571,Wunderground v.1.15,2013-04-06 20:29:00,
2013-04-06 16:35:00,55.8,27.8,30.16,SE,134,4.0,6.0,34,0.00,,,0.00,533,Wunderground v.1.15,2013-04-06 20:35:00,
2013-04-06 16:40:00,56.1,24.2,30.16,SE,136,4.0,4.0,29,0.00,,,0.00,541,Wunderground v.1.15,2013-04-06 20:40:00,
2013-04-06 16:45:00,56.8,24.8,30.16,SE,135,4.0,7.0,29,0.00,,,0.00,485,Wunderground v.1.15,2013-04-06 20:45:00,
2013-04-06 16:51:00,56.9,25.7,30.16,ESE,113,3.0,4.0,30,0.00,,,0.00,487,Wunderground v.1.15,2013-04-06 20:51:00,
2013-04-06 16:56:00,56.8,26.5,30.15,ENE,65,3.0,4.0,31,0.00,,,0.00,475,Wunderground v.1.15,2013-04-06 20:56:00,
2013-04-06 17:02:00,56.7,26.4,30.15,SE,126,4.0,9.0,31,0.00,,,0.00,452,Wunderground v.1.15,2013-04-06 21:02:00,
2013-04-06 17:08:00,56.7,24.8,30.15,SSE,163,6.0,9.0,29,0.00,,,0.00,425,Wunderground v.1.15,2013-04-06 21:08:00,
2013-04-06 17:13:00,56.9,24.1,30.15,ENE,71,4.0,6.0,28,0.00,,,0.00,420,Wunderground v.1.15,2013-04-06 21:13:00,
2013-04-06 17:18:00,57.3,26.1,30.15,South,184,2.0,6.0,30,0.00,,,0.00,408,Wunderground v.1.15,2013-04-06 21:18:00,
2013-04-06 17:23:00,57.9,25.0,30.15,SSW,201,2.0,2.0,28,0.00,,,0.00,394,Wunderground v.1.15,2013-04-06 21:23:00,
2013-04-06 17:28:00,57.8,27.3,30.15,SSE,165,4.0,9.0,31,0.00,,,0.00,373,Wunderground v.1.15,2013-04-06 21:28:00,
2013-04-06 17:33:00,57.9,24.1,30.15,SE,133,6.0,9.0,27,0.00,,,0.00,338,Wunderground v.1.15,2013-04-06 21:33:00,
2013-04-06 17:39:00,57.7,24.8,30.15,SSE,148,3.0,9.0,28,0.00,,,0.00,334,Wunderground v.1.15,2013-04-06 21:39:00,
2013-04-06 17:44:00,58.2,27.7,30.15,SSE,149,2.0,5.0,31,0.00,,,0.00,297,Wunderground v.1.15,2013-04-06 21:44:00,
2013-04-06 17:50:00,57.9,25.0,30.15,SSE,147,4.0,4.0,28,0.00,,,0.00,272,Wunderground v.1.15,2013-04-06 21:50:00,
2013-04-06 17:55:00,57.5,25.5,30.15,SE,134,4.0,4.0,29,0.00,,,0.00,265,Wunderground v.1.15,2013-04-06 21:55:00,
2013-04-06 18:00:00,57.2,26.0,30.15,SE,142,2.0,2.0,30,0.00,,,0.00,225,Wunderground v.1.15,2013-04-06 22:00:00,
2013-04-06 18:06:00,56.9,25.7,30.15,ESE,113,2.0,5.0,30,0.00,,,0.00,162,Wunderground v.1.15,2013-04-06 22:06:00,
2013-04-06 18:11:00,56.5,26.2,30.15,SE,128,5.0,8.0,31,0.00,,,0.00,165,Wunderground v.1.15,2013-04-06 22:11:00,
2013-04-06 18:16:00,56.2,26.7,30.15,ESE,115,5.0,8.0,32,0.00,,,0.00,144,Wunderground v.1.15,2013-04-06 22:16:00,
2013-04-06 18:22:00,55.9,27.2,30.15,East,96,4.0,8.0,33,0.00,,,0.00,146,Wunderground v.1.15,2013-04-06 22:22:00,
2013-04-06 18:27:00,55.5,26.8,30.15,ENE,65,6.0,9.0,33,0.00,,,0.00,137,Wunderground v.1.15,2013-04-06 22:27:00,
2013-04-06 18:32:00,55.1,27.9,30.15,East,82,7.0,9.0,35,0.00,,,0.00,93,Wunderground v.1.15,2013-04-06 22:32:00,
2013-04-06 18:38:00,54.4,27.3,30.15,East,85,8.0,9.0,35,0.00,,,0.00,86,Wunderground v.1.15,2013-04-06 22:38:00,
2013-04-06 18:43:00,54.0,28.9,30.15,NE,44,6.0,8.0,38,0.00,,,0.00,77,Wunderground v.1.15,2013-04-06 22:43:00,
2013-04-06 18:48:00,53.7,25.2,30.15,ENE,64,7.0,10.0,33,0.00,,,0.00,67,Wunderground v.1.15,2013-04-06 22:48:00,
2013-04-06 18:54:00,53.4,25.7,30.15,ENE,62,7.0,7.0,34,0.00,,,0.00,54,Wunderground v.1.15,2013-04-06 22:54:00,
2013-04-06 19:00:00,53.4,25.0,30.15,ENE,76,5.0,5.0,33,0.00,,,0.00,47,Wunderground v.1.15,2013-04-06 23:00:00,
2013-04-06 19:06:00,53.3,25.6,30.15,ENE,67,5.0,9.0,34,0.00,,,0.00,42,Wunderground v.1.15,2013-04-06 23:06:00,
2013-04-06 19:12:00,52.9,25.3,30.15,ENE,60,5.0,8.0,34,0.00,,,0.00,35,Wunderground v.1.15,2013-04-06 23:12:00,
2013-04-06 19:17:00,52.5,24.2,30.15,ENE,60,6.0,9.0,33,0.00,,,0.00,30,Wunderground v.1.15,2013-04-06 23:17:00,
2013-04-06 19:23:00,52.1,25.3,30.15,ENE,75,6.0,8.0,35,0.00,,,0.00,23,Wunderground v.1.15,2013-04-06 23:23:00,
2013-04-06 19:28:00,51.7,24.2,30.15,ENE,78,6.0,8.0,34,0.00,,,0.00,18,Wunderground v.1.15,2013-04-06 23:28:00,
2013-04-06 19:33:00,51.3,23.8,30.15,ENE,65,5.0,6.0,34,0.00,,,0.00,12,Wunderground v.1.15,2013-04-06 23:33:00,
2013-04-06 19:39:00,50.9,26.2,30.15,ENE,60,4.0,6.0,38,0.00,,,0.00,7,Wunderground v.1.15,2013-04-06 23:39:00,
2013-04-06 19:44:00,50.4,27.6,30.15,NE,40,3.0,5.0,41,0.00,,,0.00,0,Wunderground v.1.15,2013-04-06 23:44:00,
2013-04-06 19:49:00,49.8,28.2,30.15,North,9,3.0,5.0,43,0.00,,,0.00,0,Wunderground v.1.15,2013-04-06 23:49:00,
2013-04-06 19:54:00,49.0,28.6,30.16,NE,34,3.0,5.0,45,0.00,,,0.00,0,Wunderground v.1.15,2013-04-06 23:54:00,
2013-04-06 19:59:00,48.3,27.9,30.16,NE,46,3.0,7.0,45,0.00,,,0.00,0,Wunderground v.1.15,2013-04-06 23:59:00,
2013-04-06 20:04:00,47.7,27.4,30.16,NNE,25,4.0,6.0,45,0.00,,,0.00,0,Wunderground v.1.15,2013-04-07 00:04:00,
2013-04-06 20:10:00,47.0,24.5,30.16,NE,44,5.0,5.0,41,0.00,,,0.00,0,Wunderground v.1.15,2013-04-07 00:10:00,
2013-04-06 20:15:00,46.8,26.6,30.16,NNE,20,5.0,6.0,45,0.00,,,0.00,0,Wunderground v.1.15,2013-04-07 00:15:00,
2013-04-06 20:21:00,46.6,26.4,30.16,NNE,22,5.0,5.0,45,0.00,,,0.00,0,Wunderground v.1.15,2013-04-07 00:21:00,
2013-04-06 20:26:00,46.5,26.3,30.16,NNE,26,4.0,6.0,45,0.00,,,0.00,0,Wunderground v.1.15,2013-04-07 00:26:00,
2013-04-06 20:32:00,46.2,27.6,30.16,NNE,22,5.0,6.0,48,0.00,,,0.00,0,Wunderground v.1.15,2013-04-07 00:32:00,
2013-04-06 20:37:00,45.8,27.2,30.16,NNE,19,5.0,8.0,48,0.00,,,0.00,0,Wunderground v.1.15,2013-04-07 00:37:00,
2013-04-06 20:43:00,45.4,26.8,30.16,NNE,21,5.0,6.0,48,0.00,,,0.00,0,Wunderground v.1.15,2013-04-07 00:43:00,
2013-04-06 20:49:00,45.1,27.6,30.16,NNE,28,5.0,6.0,50,0.00,,,0.00,0,Wunderground v.1.15,2013-04-07 00:49:00,
2013-04-06 20:54:00,44.8,27.3,30.16,NE,38,5.0,5.0,50,0.00,,,0.00,0,Wunderground v.1.15,2013-04-07 00:54:00,
2013-04-06 20:59:00,44.7,26.2,30.16,NNE,33,5.0,8.0,48,0.00,,,0.00,0,Wunderground v.1.15,2013-04-07 00:59:00,
2013-04-06 21:04:00,44.8,26.3,30.16,NE,40,5.0,5.0,48,0.00,,,0.00,0,Wunderground v.1.15,2013-04-07 01:04:00,
2013-04-06 21:10:00,44.7,28.1,30.16,NE,41,4.0,4.0,52,0.00,,,0.00,0,Wunderground v.1.15,2013-04-07 01:10:00,
2013-04-06 21:16:00,44.3,28.2,30.16,NNE,31,3.0,5.0,53,0.00,,,0.00,0,Wunderground v.1.15,2013-04-07 01:16:00,
2013-04-06 21:22:00,43.9,28.3,30.17,NE,42,2.0,4.0,54,0.00,,,0.00,0,Wunderground v.1.15,2013-04-07 01:22:00,
2013-04-06 21:27:00,43.6,27.1,30.16,NNE,20,3.0,5.0,52,0.00,,,0.00,0,Wunderground v.1.15,2013-04-07 01:27:00,
2013-04-06 21:33:00,43.6,28.9,30.16,North,9,3.0,3.0,56,0.00,,,0.00,0,Wunderground v.1.15,2013-04-07 01:33:00,
2013-04-06 21:38:00,43.3,29.5,30.17,NNE,19,2.0,3.0,58,0.00,,,0.00,0,Wunderground v.1.15,2013-04-07 01:38:00,
2013-04-06 21:44:00,43.1,28.9,30.17,NNE,20,3.0,5.0,57,0.00,,,0.00,0,Wunderground v.1.15,2013-04-07 01:44:00,
2013-04-06 21:49:00,42.9,29.5,30.16,NNE,33,3.0,5.0,59,0.00,,,0.00,0,Wunderground v.1.15,2013-04-07 01:49:00,
2013-04-06 21:54:00,42.8,29.9,30.16,NE,36,3.0,4.0,60,0.00,,,0.00,0,Wunderground v.1.15,2013-04-07 01:54:00,
2013-04-06 22:00:00,42.7,29.8,30.17,NNE,18,2.0,3.0,60,0.00,,,0.00,0,Wunderground v.1.15,2013-04-07 02:00:00,
2013-04-06 22:06:00,42.7,29.8,30.17,NNE,19,2.0,3.0,60,0.00,,,0.00,0,Wunderground v.1.15,2013-04-07 02:06:00,
2013-04-06 22:12:00,42.6,30.1,30.17,NNE,21,2.0,4.0,61,0.00,,,0.00,0,Wunderground v.1.15,2013-04-07 02:12:00,
2013-04-06 22:18:00,42.6,30.1,30.17,NE,34,3.0,4.0,61,0.00,,,0.00,0,Wunderground v.1.15,2013-04-07 02:18:00,
2013-04-06 22:23:00,42.6,30.5,30.16,NNE,23,3.0,3.0,62,0.00,,,0.00,0,Wunderground v.1.15,2013-04-07 02:23:00,
2013-04-06 22:28:00,42.6,30.9,30.16,NNE,30,2.0,3.0,63,0.00,,,0.00,0,Wunderground v.1.15,2013-04-07 02:28:00,
2013-04-06 22:34:00,42.4,31.1,30.16,NNE,28,2.0,2.0,64,0.00,,,0.00,0,Wunderground v.1.15,2013-04-07 02:34:00,
2013-04-06 22:39:00,42.3,30.6,30.16,NNE,30,2.0,2.0,63,0.00,,,0.00,0,Wunderground v.1.15,2013-04-07 02:39:00,
2013-04-06 22:45:00,42.2,30.9,30.16,NNE,29,2.0,3.0,64,0.00,,,0.00,0,Wunderground v.1.15,2013-04-07 02:45:00,
2013-04-06 22:51:00,42.1,31.2,30.16,NNE,30,1.0,1.0,65,0.00,,,0.00,0,Wunderground v.1.15,2013-04-07 02:51:00,
2013-04-06 22:57:00,41.9,31.4,30.16,NNE,29,1.0,2.0,66,0.00,,,0.00,0,Wunderground v.1.15,2013-04-07 02:57:00,
2013-04-06 23:02:00,41.8,30.9,30.16,NNE,29,2.0,3.0,65,0.00,,,0.00,0,Wunderground v.1.15,2013-04-07 03:02:00,
2013-04-06 23:08:00,41.6,31.8,30.16,NNE,28,2.0,3.0,68,0.00,,,0.00,0,Wunderground v.1.15,2013-04-07 03:08:00,
2013-04-06 23:13:00,41.4,31.3,30.16,NNE,30,1.0,2.0,67,0.00,,,0.00,0,Wunderground v.1.15,2013-04-07 03:13:00,
2013-04-06 23:19:00,41.1,32.4,30.16,NNE,31,0.0,2.0,71,0.00,,,0.00,0,Wunderground v.1.15,2013-04-07 03:19:00,
2013-04-06 23:24:00,40.8,31.8,30.16,NNE,30,1.0,2.0,70,0.00,,,0.00,0,Wunderground v.1.15,2013-04-07 03:24:00,
2013-04-06 23:30:00,40.5,32.2,30.16,NNE,29,1.0,1.0,72,0.00,,,0.00,0,Wunderground v.1.15,2013-04-07 03:30:00,
2013-04-06 23:36:00,40.2,30.8,30.16,NNE,29,1.0,1.0,69,0.00,,,0.00,0,Wunderground v.1.15,2013-04-07 03:36:00,
2013-04-06 23:42:00,39.9,30.5,30.15,NNE,29,1.0,1.0,69,0.00,,,0.00,0,Wunderground v.1.15,2013-04-07 03:42:00,
2013-04-06 23:48:00,39.6,30.3,30.15,WNW,290,1.0,2.0,69,0.00,,,0.00,0,Wunderground v.1.15,2013-04-07 03:48:00,
2013-04-06 23:53:00,39.5,30.2,30.15,WNW,289,1.0,1.0,69,0.00,,,0.00,0,Wunderground v.1.15,2013-04-07 03:53:00,
2013-04-06 23:59:00,39.3,30.0,30.15,WNW,290,0.0,2.0,69,0.00,,,0.00,0,Wunderground v.1.15,2013-04-07 03:59:00,